Terminal Aerodrome Forecast
Issued by NWS

Home | Current Version | Previous Version | Text Only | Print | Product List | Glossary On
Versions: 1 2 3 4 5 6 7 8 9 10 11 12 13 14 15 16 17 18
000
FTUS43 KGRR 301251 AAA
TAFAZO
TAF AMD
KAZO 301251Z 3013/0112 16004KT P6SM VCSH OVC009
     FM301500 23007KT P6SM VCSH BKN015
     FM301800 28011KT P6SM VCTS BKN035CB
     FM010200 31008KT P6SM BKN035
     FM010800 33006KT P6SM BKN015=

USA.gov is the U.S. government's official web portal to all federal, state and local government web resources and services.